< < Back
Terminal Aerodrome Forecast


Current Version              Previous Versions:   1  2  3  4  5  6  7  8  9  

Terminal Aerodrome Forecast

848
FTUS42 KFFC 270526
TAFATL
TAF
KATL 270526Z 2706/2812 27007KT P6SM SCT040 BKN070
     FM270800 29010KT P6SM SCT030 BKN050
     FM271200 30014G24KT P6SM SCT025 BKN050
     FM271700 31015G25KT P6SM SCT040
     FM280000 32008KT P6SM FEW050=

Latest METAR

435
SAUS70 KWBC 270700 RRA
MTRATL
METAR KATL 270652Z 28014G20KT 10SM FEW085 08/M04 A3009 RMK AO2 SLP189
T00831039


USA.gov is the U.S. government's official web portal to all federal, state and local government web resources and services.